Flight Track Log - Related Links

Times and Time Zones

All times are in EDT time to prevent confusion due to time zone crossing. See the N71ST flight status page for this flight to view local times or setup timezone preferences in your user account.

Time Position Orientation Groundspeed Altitude Reporting Facility
EDT Latitude Longitude Course Direction KTS MPH feet Rate Location/Type
Sun 02:50:57 PM 42.4667 -71.3167 304° West 72 83 1,200  Level KA90
Sun 02:51:57 PM 42.4833 -71.3500 304° West 90 104 2,000 895 Climbing KA90
Sun 02:52:51 PM 42.5000 -71.3500 360° North 92 106 2,900 1,000 Climbing KA90
Sun 02:53:51 PM 42.5167 -71.3333 36° Northeast 90 104 3,900 900 Climbing KA90
Sun 02:54:51 PM 42.5333 -71.3333 360° North 83 96 4,700 700 Climbing KA90
Sun 02:56:00 PM 42.5674 -71.3458 345° North  Level Estimated
Sun 02:56:51 PM 42.5833 -71.3333 345° North 82 94 6,000  Level KA90
Sun 02:57:51 PM 42.6167 -71.3500 340° North 112 129 6,100 50 Climbing KA90
Sun 02:58:51 PM 42.6500 -71.3500 360° North 119 137 6,100  Level KA90
Sun 02:59:51 PM 42.6833 -71.3667 340° North 125 144 6,100 -50 Level KA90
Sun 03:00:51 PM 42.7167 -71.3667 360° North 124 143 6,000 -50 Descending KA90
Sun 03:01:51 PM 42.7500 -71.3833 340° North 122 140 6,000 50 Level KA90
Sun 03:02:51 PM 42.7833 -71.3833 360° North 123 142 6,100 95 Climbing KA90
Sun 03:03:57 PM 42.8167 -71.3833 360° North 121 139 6,200  Climbing KA90
Sun 03:04:51 PM 42.8500 -71.3833 360° North 122 140 6,100 -53 Descending KA90
Sun 03:05:51 PM 42.8833 -71.4000 340° North 121 139 6,100  Level KA90
Sun 03:06:57 PM 42.9167 -71.4167 340° North 126 145 6,100 -95 Level KA90
Sun 03:07:57 PM 42.9333 -71.4500 304° West 122 140 5,900  Descending KA90
Sun 03:08:57 PM 42.9667 -71.4833 324° Northwest 124 143 6,100 53 Climbing KA90
Sun 03:09:51 PM 42.9947 -71.5089 326° Northwest 138 159 6,000 53 Descending Boston Center
Sun 03:10:51 PM 43.0178 -71.5369 318° Northwest 133 153 6,200 100 Climbing Boston Center
Sun 03:11:51 PM 43.0431 -71.5622 324° Northwest 119 137 6,200 -50 Level Boston Center
Sun 03:12:52 PM 43.0703 -71.5903 323° Northwest 114 131 6,100 -100 Descending Boston Center
Sun 03:13:51 PM 43.0978 -71.6156 326° Northwest 114 131 6,000 -101 Descending Boston Center
Sun 03:14:51 PM 43.1250 -71.6436 323° Northwest 114 131 5,900  Descending Boston Center
Sun 03:15:51 PM 43.1500 -71.6661 327° Northwest 114 131 6,000 100 Climbing Boston Center
Sun 03:16:51 PM 43.1753 -71.6942 321° Northwest 108 124 6,100 50 Climbing Boston Center
Sun 03:17:51 PM 43.2006 -71.7194 324° Northwest 108 124 6,100 -50 Level Boston Center
Sun 03:18:51 PM 43.2278 -71.7447 326° Northwest 108 124 6,000 -50 Descending Boston Center
Sun 03:19:51 PM 43.2528 -71.7703 323° Northwest 108 124 6,000  Level Boston Center
Sun 03:20:51 PM 43.2803 -71.7956 326° Northwest 108 124 6,000 50 Level Boston Center
Sun 03:21:51 PM 43.3075 -71.8239 323° Northwest 113 130 6,100 50 Climbing Boston Center
Sun 03:22:51 PM 43.3325 -71.8522 321° Northwest 113 130 6,100  Level Boston Center
Sun 03:23:51 PM 43.3597 -71.8803 323° Northwest 113 130 6,100 -50 Level Boston Center
Sun 03:24:51 PM 43.3786 -71.9031 319° Northwest 113 130 6,000  Descending Boston Center
Sun 03:25:51 PM 43.4081 -71.9372 320° Northwest 113 130 6,100 50 Climbing Boston Center
Sun 03:26:51 PM 43.4247 -71.9714 304° West 119 137 6,100  Level Boston Center
Sun 03:27:51 PM 43.3872 -71.9486 156° South 46 53 6,100 -50 Level Boston Center
Sun 03:28:51 PM 43.3558 -71.9206 147° Southeast 121 139 6,000 -100 Descending Boston Center
Sun 03:29:51 PM 43.3244 -71.8950 149° Southeast 132 152 5,900  Descending Boston Center
Sun 03:30:51 PM 43.2931 -71.8667 147° Southeast 137 158 6,000 -50 Climbing Boston Center
Sun 03:31:51 PM 43.2594 -71.8414 151° Southeast 137 158 5,800 -200 Descending Boston Center
Sun 03:32:51 PM 43.2219 -71.8219 159° South 142 163 5,600 -397 Descending Boston Center
Sun 03:33:52 PM 43.1842 -71.7994 157° South 142 163 5,000 -600 Descending Boston Center
Sun 03:34:51 PM 43.1467 -71.7800 159° South 147 169 4,400 -454 Descending Boston Center
Sun 03:35:51 PM 43.1092 -71.7575 156° South 147 169 4,100 -150 Descending Boston Center
Sun 03:36:51 PM 43.0736 -71.7408 161° South 141 162 4,100 -100 Level Boston Center
Sun 03:37:51 PM 43.0381 -71.7214 158° South 141 162 3,900 -50 Descending Boston Center
Sun 03:38:51 PM 43.0044 -71.7075 163° South 135 155 4,000 50 Climbing Boston Center
Sun 03:39:51 PM 42.9711 -71.6911 160° South 135 155 4,000 50 Level Boston Center
Sun 03:40:51 PM 42.9375 -71.6714 157° South 130 150 4,100 66 Climbing Boston Center
Sun 03:42:52 PM 42.8667 -71.6333 159° South 130 150 4,200  Climbing KA90
Sun 03:43:52 PM 42.8333 -71.6167 160° South 134 154 4,100 -144 Descending KA90
Sun 03:44:57 PM 42.8000 -71.5833 144° Southeast 131 151 3,900 -48 Descending KA90
Sun 03:45:58 PM 42.7667 -71.5500 144° Southeast 126 145 4,000 50 Climbing KA90
Sun 03:46:58 PM 42.7500 -71.5333 144° Southeast 124 143 4,000  Level KA90
Sun 03:47:58 PM 42.7167 -71.5000 144° Southeast 125 144 4,000 50 Level KA90
Sun 03:48:58 PM 42.6833 -71.4667 144° Southeast 130 150 4,100 48 Climbing KA90
Sun 03:50:04 PM 42.6500 -71.4333 144° Southeast 133 153 4,100 -48 Level KA90
Sun 03:51:04 PM 42.6333 -71.4000 124° Southeast 136 157 4,000 -350 Descending KA90
Sun 03:52:04 PM 42.6000 -71.3667 144° Southeast 145 167 3,400 -421 Descending KA90
Sun 03:52:58 PM 42.5833 -71.3333 124° Southeast 128 147 3,200 -368 Descending KA90
Sun 03:53:58 PM 42.5833 -71.2833 90° East 121 139 2,700 -524 Descending KA90
Sun 03:55:00 PM 42.5501 -71.2850 151° Southeast  Level Estimated
Sun 03:55:04 PM 42.5500 -71.2500 151° Southeast 131 151 2,100  Level KA90
Sun 03:56:04 PM 42.5333 -71.2167 124° Southeast 127 146 2,000 -50 Descending KA90
Sun 03:57:04 PM 42.5000 -71.2000 160° South 112 129 2,000 -100 Level KA90
Sun 03:58:04 PM 42.4667 -71.1833 160° South 97 112 1,800 -300 Descending KA90
Sun 03:59:04 PM 42.4667 -71.2167 270° West 90 104 1,400 -474 Descending KA90
Sun 03:59:58 PM 42.4667 -71.2333 270° West 83 96 900 -556 Descending KA90
Sun 04:02:00 PM 42.4667 -71.2833 196° South  Level FlightAware Approximate
Sun 04:09:00 PM 42.4699 -71.2890 196° South  Level Estimated

Login

Don't have an account? Register now (free) for customized features, flight alerts, and more!